Oostende, Belgium
Current Conditions -  °F | °C
As of 8:20 PM on Saturday 20 Dec 2014 (Local Time) from EBOS Reporting Station
Scattered Clouds Scattered Clouds  
Wind Chill: 41°   Ceiling: Unl
Heat Index: 48°   Visibility: 6mi
Dew Point: 39°   Wind: 23mph
Humidity: 71%   Direction: 300°WNW
Pressure: 30.36"   Gusts: NA
Location:  51.22°N, 2.91°E
Report Text: EBOS 201920Z 30020KT 9999 SCT029 09/04 Q1028 NOSIG
Loading
Personal Weather Stations






























Interactive Weather Map New forecast layout! Learn more

10-Day Weather Forecast

Advertisements
Track Severe Weather on mobile